sensor_id;sensor_type;location;lat;lon;timestamp;pressure;altitude;pressure_sealevel;temperature;humidity
47430;BME280;33181;49.246;7.372;2023-05-25T00:00:25;99329.75;;;11.08;67.34
47430;BME280;33181;49.246;7.372;2023-05-25T00:02:51;99331.88;;;11.03;67.22
47430;BME280;33181;49.246;7.372;2023-05-25T00:05:19;99328.13;;;10.95;68.17
47430;BME280;33181;49.246;7.372;2023-05-25T00:07:46;99326.44;;;10.94;67.87
47430;BME280;33181;49.246;7.372;2023-05-25T00:10:12;99328.22;;;10.93;68.10
47430;BME280;33181;49.246;7.372;2023-05-25T00:12:38;99324.03;;;10.90;68.17
47430;BME280;33181;49.246;7.372;2023-05-25T00:15:05;99326.00;;;11.00;68.31
47430;BME280;33181;49.246;7.372;2023-05-25T00:17:32;99320.97;;;10.97;68.48
47430;BME280;33181;49.246;7.372;2023-05-25T00:19:58;99328.00;;;10.96;68.44
47430;BME280;33181;49.246;7.372;2023-05-25T00:22:34;99322.50;;;10.88;68.14
47430;BME280;33181;49.246;7.372;2023-05-25T00:25:01;99319.69;;;10.78;68.76
47430;BME280;33181;49.246;7.372;2023-05-25T00:27:27;99315.06;;;10.82;68.74
47430;BME280;33181;49.246;7.372;2023-05-25T00:29:53;99307.38;;;10.79;68.51
47430;BME280;33181;49.246;7.372;2023-05-25T00:32:19;99313.78;;;10.75;68.83
47430;BME280;33181;49.246;7.372;2023-05-25T00:34:45;99323.19;;;10.66;69.03
47430;BME280;33181;49.246;7.372;2023-05-25T00:37:11;99316.50;;;10.49;69.74
47430;BME280;33181;49.246;7.372;2023-05-25T00:39:37;99309.59;;;10.48;69.78
47430;BME280;33181;49.246;7.372;2023-05-25T00:42:04;99318.91;;;10.52;69.50
47430;BME280;33181;49.246;7.372;2023-05-25T00:44:32;99316.28;;;10.52;69.66
47430;BME280;33181;49.246;7.372;2023-05-25T00:46:58;99313.44;;;10.55;69.73
47430;BME280;33181;49.246;7.372;2023-05-25T00:49:32;99311.22;;;10.62;69.64
47430;BME280;33181;49.246;7.372;2023-05-25T00:51:58;99316.59;;;10.60;69.64
47430;BME280;33181;49.246;7.372;2023-05-25T00:54:27;99317.78;;;10.56;69.79
47430;BME280;33181;49.246;7.372;2023-05-25T00:56:59;99320.19;;;10.59;69.97
47430;BME280;33181;49.246;7.372;2023-05-25T00:59:49;99313.25;;;10.46;69.71
47430;BME280;33181;49.246;7.372;2023-05-25T01:02:18;99312.97;;;10.50;69.67
47430;BME280;33181;49.246;7.372;2023-05-25T01:04:48;99319.75;;;10.53;69.75
47430;BME280;33181;49.246;7.372;2023-05-25T01:07:21;99312.75;;;10.53;69.76
47430;BME280;33181;49.246;7.372;2023-05-25T01:10:05;99315.38;;;10.53;69.67
47430;BME280;33181;49.246;7.372;2023-05-25T01:12:37;99316.50;;;10.49;69.94
47430;BME280;33181;49.246;7.372;2023-05-25T01:15:05;99317.16;;;10.40;70.42
47430;BME280;33181;49.246;7.372;2023-05-25T01:17:31;99320.53;;;10.42;70.33
47430;BME280;33181;49.246;7.372;2023-05-25T01:19:56;99315.69;;;10.36;70.49
47430;BME280;33181;49.246;7.372;2023-05-25T01:23:09;99320.84;;;10.12;71.09
47430;BME280;33181;49.246;7.372;2023-05-25T01:25:42;99320.75;;;10.13;71.24
47430;BME280;33181;49.246;7.372;2023-05-25T01:28:37;99321.59;;;10.01;71.65
47430;BME280;33181;49.246;7.372;2023-05-25T01:31:06;99324.22;;;9.88;72.52
47430;BME280;33181;49.246;7.372;2023-05-25T01:33:35;99325.59;;;9.94;72.39
47430;BME280;33181;49.246;7.372;2023-05-25T01:36:02;99318.97;;;10.01;72.11
47430;BME280;33181;49.246;7.372;2023-05-25T01:38:29;99321.59;;;10.01;72.26
47430;BME280;33181;49.246;7.372;2023-05-25T01:40:55;99324.00;;;10.04;72.03
47430;BME280;33181;49.246;7.372;2023-05-25T01:43:22;99327.47;;;10.05;71.86
47430;BME280;33181;49.246;7.372;2023-05-25T01:45:48;99339.66;;;10.06;71.80
47430;BME280;33181;49.246;7.372;2023-05-25T01:48:32;99328.31;;;10.05;71.81
47430;BME280;33181;49.246;7.372;2023-05-25T01:51:14;99339.66;;;10.06;71.93
47430;BME280;33181;49.246;7.372;2023-05-25T01:54:02;99338.59;;;10.08;72.04
47430;BME280;33181;49.246;7.372;2023-05-25T01:56:31;99341.63;;;10.15;71.77
47430;BME280;33181;49.246;7.372;2023-05-25T01:59:00;99345.63;;;10.20;71.71
47430;BME280;33181;49.246;7.372;2023-05-25T02:01:28;99348.06;;;10.11;71.96
47430;BME280;33181;49.246;7.372;2023-05-25T02:03:56;99339.66;;;10.06;72.04
47430;BME280;33181;49.246;7.372;2023-05-25T02:06:23;99345.44;;;10.11;71.79
47430;BME280;33181;49.246;7.372;2023-05-25T02:08:48;99339.00;;;10.15;71.77
47430;BME280;33181;49.246;7.372;2023-05-25T02:11:15;99331.88;;;10.17;71.65
47430;BME280;33181;49.246;7.372;2023-05-25T02:13:42;99333.47;;;10.19;71.62
47430;BME280;33181;49.246;7.372;2023-05-25T02:16:07;99326.41;;;10.20;71.57
47430;BME280;33181;49.246;7.372;2023-05-25T02:18:34;99331.03;;;10.16;71.43
47430;BME280;33181;49.246;7.372;2023-05-25T02:21:00;99325.69;;;10.05;72.02
47430;BME280;33181;49.246;7.372;2023-05-25T02:23:26;99321.94;;;9.96;72.13
47430;BME280;33181;49.246;7.372;2023-05-25T02:25:52;99317.59;;;9.95;72.67
47430;BME280;33181;49.246;7.372;2023-05-25T02:28:18;99329.47;;;9.88;72.75
47430;BME280;33181;49.246;7.372;2023-05-25T02:30:44;99329.91;;;9.82;73.00
47430;BME280;33181;49.246;7.372;2023-05-25T02:33:10;99335.47;;;9.78;73.57
47430;BME280;33181;49.246;7.372;2023-05-25T02:35:37;99337.00;;;9.67;74.25
47430;BME280;33181;49.246;7.372;2023-05-25T02:38:03;99325.25;;;9.60;74.33
47430;BME280;33181;49.246;7.372;2023-05-25T02:40:29;99327.69;;;9.63;74.27
47430;BME280;33181;49.246;7.372;2023-05-25T02:42:54;99332.50;;;9.57;74.59
47430;BME280;33181;49.246;7.372;2023-05-25T02:45:20;99333.53;;;9.54;74.64
47430;BME280;33181;49.246;7.372;2023-05-25T02:47:46;99329.75;;;9.58;74.59
47430;BME280;33181;49.246;7.372;2023-05-25T02:50:12;99331.75;;;9.67;74.15
47430;BME280;33181;49.246;7.372;2023-05-25T02:52:38;99334.72;;;9.75;73.90
47430;BME280;33181;49.246;7.372;2023-05-25T02:55:05;99326.44;;;9.82;73.86
47430;BME280;33181;49.246;7.372;2023-05-25T02:57:31;99328.31;;;9.80;73.76
47430;BME280;33181;49.246;7.372;2023-05-25T02:59:57;99326.31;;;9.83;73.50
47430;BME280;33181;49.246;7.372;2023-05-25T03:02:23;99320.34;;;9.81;73.39
47430;BME280;33181;49.246;7.372;2023-05-25T03:04:50;99321.47;;;9.77;73.29
47430;BME280;33181;49.246;7.372;2023-05-25T03:07:19;99316.69;;;9.71;73.83
47430;BME280;33181;49.246;7.372;2023-05-25T03:09:46;99319.81;;;9.63;74.27
47430;BME280;33181;49.246;7.372;2023-05-25T03:12:12;99318.22;;;9.61;74.50
47430;BME280;33181;49.246;7.372;2023-05-25T03:14:37;99322.09;;;9.55;74.87
47430;BME280;33181;49.246;7.372;2023-05-25T03:17:04;99331.97;;;9.51;75.23
47430;BME280;33181;49.246;7.372;2023-05-25T03:19:29;99335.13;;;9.57;75.12
47430;BME280;33181;49.246;7.372;2023-05-25T03:21:57;99332.59;;;9.55;75.35
47430;BME280;33181;49.246;7.372;2023-05-25T03:24:22;99335.88;;;9.59;75.26
47430;BME280;33181;49.246;7.372;2023-05-25T03:26:48;99342.16;;;9.56;75.24
47430;BME280;33181;49.246;7.372;2023-05-25T03:29:14;99340.03;;;9.61;75.26
47430;BME280;33181;49.246;7.372;2023-05-25T03:31:40;99340.38;;;9.69;75.02
47430;BME280;33181;49.246;7.372;2023-05-25T03:34:06;99348.88;;;9.60;75.25
47430;BME280;33181;49.246;7.372;2023-05-25T03:36:31;99347.19;;;9.46;76.16
47430;BME280;33181;49.246;7.372;2023-05-25T03:38:58;99352.50;;;9.45;76.19
47430;BME280;33181;49.246;7.372;2023-05-25T03:41:26;99356.72;;;9.47;76.16
47430;BME280;33181;49.246;7.372;2023-05-25T03:43:52;99354.84;;;9.49;76.12
47430;BME280;33181;49.246;7.372;2023-05-25T03:46:18;99362.59;;;9.51;76.37
47430;BME280;33181;49.246;7.372;2023-05-25T03:48:44;99354.63;;;9.52;76.30
47430;BME280;33181;49.246;7.372;2023-05-25T03:51:10;99353.81;;;9.52;76.48
47430;BME280;33181;49.246;7.372;2023-05-25T03:53:36;99350.63;;;9.47;76.89
47430;BME280;33181;49.246;7.372;2023-05-25T03:56:01;99362.09;;;9.59;76.63
47430;BME280;33181;49.246;7.372;2023-05-25T03:58:28;99354.75;;;9.64;76.33
47430;BME280;33181;49.246;7.372;2023-05-25T04:00:54;99362.63;;;9.77;75.80
47430;BME280;33181;49.246;7.372;2023-05-25T04:03:22;99362.13;;;9.97;75.07
47430;BME280;33181;49.246;7.372;2023-05-25T04:05:48;99364.22;;;10.17;74.23
47430;BME280;33181;49.246;7.372;2023-05-25T04:08:15;99357.69;;;10.49;73.84
47430;BME280;33181;49.246;7.372;2023-05-25T04:10:45;99364.25;;;10.80;72.33
47430;BME280;33181;49.246;7.372;2023-05-25T04:13:12;99360.13;;;11.12;70.61
47430;BME280;33181;49.246;7.372;2023-05-25T04:15:38;99367.16;;;11.36;70.03
47430;BME280;33181;49.246;7.372;2023-05-25T04:18:04;99368.44;;;11.66;68.56
47430;BME280;33181;49.246;7.372;2023-05-25T04:20:30;99363.19;;;11.54;68.71
47430;BME280;33181;49.246;7.372;2023-05-25T04:22:56;99364.63;;;11.58;68.64
47430;BME280;33181;49.246;7.372;2023-05-25T04:25:23;99370.97;;;12.02;68.08
47430;BME280;33181;49.246;7.372;2023-05-25T04:27:49;99375.56;;;12.45;66.36
47430;BME280;33181;49.246;7.372;2023-05-25T04:30:18;99380.03;;;12.88;64.10
47430;BME280;33181;49.246;7.372;2023-05-25T04:32:45;99376.38;;;13.34;63.10
47430;BME280;33181;49.246;7.372;2023-05-25T04:35:11;99378.13;;;13.87;61.46
47430;BME280;33181;49.246;7.372;2023-05-25T04:37:39;99386.66;;;14.21;60.16
47430;BME280;33181;49.246;7.372;2023-05-25T04:40:07;99386.81;;;14.20;59.86
47430;BME280;33181;49.246;7.372;2023-05-25T04:42:36;99387.13;;;14.26;59.64
47430;BME280;33181;49.246;7.372;2023-05-25T04:45:06;99386.34;;;13.52;61.63
47430;BME280;33181;49.246;7.372;2023-05-25T04:47:34;99383.56;;;13.32;62.56
47430;BME280;33181;49.246;7.372;2023-05-25T04:50:02;99390.84;;;12.96;64.37
47430;BME280;33181;49.246;7.372;2023-05-25T04:52:29;99392.84;;;13.04;64.17
47430;BME280;33181;49.246;7.372;2023-05-25T04:54:55;99394.19;;;12.87;64.68
47430;BME280;33181;49.246;7.372;2023-05-25T04:57:21;99398.75;;;12.85;64.91
47430;BME280;33181;49.246;7.372;2023-05-25T04:59:46;99392.59;;;13.07;64.77
47430;BME280;33181;49.246;7.372;2023-05-25T05:02:12;99393.09;;;13.01;64.29
47430;BME280;33181;49.246;7.372;2023-05-25T05:04:38;99403.19;;;12.73;65.52
47430;BME280;33181;49.246;7.372;2023-05-25T05:07:05;99403.91;;;12.75;66.02
47430;BME280;33181;49.246;7.372;2023-05-25T05:09:33;99396.84;;;12.76;65.76
47430;BME280;33181;49.246;7.372;2023-05-25T05:11:59;99415.19;;;12.66;66.34
47430;BME280;33181;49.246;7.372;2023-05-25T05:14:25;99420.22;;;12.58;66.63
47430;BME280;33181;49.246;7.372;2023-05-25T05:16:51;99412.56;;;12.44;67.07
47430;BME280;33181;49.246;7.372;2023-05-25T05:19:17;99420.53;;;12.20;68.12
47430;BME280;33181;49.246;7.372;2023-05-25T05:21:42;99420.25;;;12.00;68.68
47430;BME280;33181;49.246;7.372;2023-05-25T05:24:08;99417.66;;;12.12;68.25
47430;BME280;33181;49.246;7.372;2023-05-25T05:26:34;99418.44;;;12.36;67.61
47430;BME280;33181;49.246;7.372;2023-05-25T05:28:59;99419.25;;;12.48;67.23
47430;BME280;33181;49.246;7.372;2023-05-25T05:31:26;99421.28;;;12.44;67.07
47430;BME280;33181;49.246;7.372;2023-05-25T05:33:52;99424.66;;;12.46;66.40
47430;BME280;33181;49.246;7.372;2023-05-25T05:36:18;99418.78;;;12.65;66.78
47430;BME280;33181;49.246;7.372;2023-05-25T05:38:44;99414.91;;;13.03;65.24
47430;BME280;33181;49.246;7.372;2023-05-25T05:41:12;99423.78;;;13.02;64.83
47430;BME280;33181;49.246;7.372;2023-05-25T05:43:41;99422.78;;;13.14;64.74
47430;BME280;33181;49.246;7.372;2023-05-25T05:46:12;99424.34;;;13.17;63.85
47430;BME280;33181;49.246;7.372;2023-05-25T05:48:39;99425.22;;;12.95;63.93
47430;BME280;33181;49.246;7.372;2023-05-25T05:51:06;99423.94;;;12.78;65.09
47430;BME280;33181;49.246;7.372;2023-05-25T05:53:32;99430.38;;;12.85;64.66
47430;BME280;33181;49.246;7.372;2023-05-25T05:56:00;99427.75;;;12.96;64.57
47430;BME280;33181;49.246;7.372;2023-05-25T05:58:27;99424.00;;;13.10;64.16
47430;BME280;33181;49.246;7.372;2023-05-25T06:00:55;99432.59;;;13.35;63.44
47430;BME280;33181;49.246;7.372;2023-05-25T06:03:23;99433.47;;;13.24;62.88
47430;BME280;33181;49.246;7.372;2023-05-25T06:05:49;99432.31;;;13.49;62.46
47430;BME280;33181;49.246;7.372;2023-05-25T06:08:15;99426.28;;;13.58;61.60
47430;BME280;33181;49.246;7.372;2023-05-25T06:10:42;99425.16;;;13.40;60.88
47430;BME280;33181;49.246;7.372;2023-05-25T06:13:07;99418.66;;;13.44;61.18
47430;BME280;33181;49.246;7.372;2023-05-25T06:15:34;99416.59;;;13.59;60.59
47430;BME280;33181;49.246;7.372;2023-05-25T06:18:00;99423.59;;;13.70;60.26
47430;BME280;33181;49.246;7.372;2023-05-25T06:20:26;99426.25;;;13.70;59.97
47430;BME280;33181;49.246;7.372;2023-05-25T06:22:52;99428.44;;;13.85;60.18
47430;BME280;33181;49.246;7.372;2023-05-25T06:25:19;99423.09;;;13.76;59.76
47430;BME280;33181;49.246;7.372;2023-05-25T06:27:50;99433.22;;;13.91;59.24
47430;BME280;33181;49.246;7.372;2023-05-25T06:30:17;99435.47;;;13.75;58.55
47430;BME280;33181;49.246;7.372;2023-05-25T06:32:42;99421.88;;;13.80;59.00
47430;BME280;33181;49.246;7.372;2023-05-25T06:35:09;99420.66;;;14.05;59.32
47430;BME280;33181;49.246;7.372;2023-05-25T06:37:38;99411.97;;;14.45;58.92
47430;BME280;33181;49.246;7.372;2023-05-25T06:40:04;99418.97;;;14.76;55.86
47430;BME280;33181;49.246;7.372;2023-05-25T06:42:31;99431.22;;;14.77;56.54
47430;BME280;33181;49.246;7.372;2023-05-25T06:44:57;99427.41;;;15.01;55.34
47430;BME280;33181;49.246;7.372;2023-05-25T06:47:22;99427.72;;;15.27;55.07
47430;BME280;33181;49.246;7.372;2023-05-25T06:49:50;99426.84;;;15.07;54.06
47430;BME280;33181;49.246;7.372;2023-05-25T06:52:16;99432.81;;;14.99;54.47
47430;BME280;33181;49.246;7.372;2023-05-25T06:54:42;99431.66;;;14.82;55.62
47430;BME280;33181;49.246;7.372;2023-05-25T06:57:08;99428.00;;;14.74;56.11
47430;BME280;33181;49.246;7.372;2023-05-25T06:59:34;99430.69;;;14.93;56.91
47430;BME280;33181;49.246;7.372;2023-05-25T07:02:00;99443.38;;;14.90;55.88
47430;BME280;33181;49.246;7.372;2023-05-25T07:04:26;99441.06;;;15.25;56.21
47430;BME280;33181;49.246;7.372;2023-05-25T07:06:53;99440.00;;;15.38;55.41
47430;BME280;33181;49.246;7.372;2023-05-25T07:09:19;99441.94;;;15.26;54.47
47430;BME280;33181;49.246;7.372;2023-05-25T07:11:45;99441.59;;;15.10;54.13
47430;BME280;33181;49.246;7.372;2023-05-25T07:14:11;99443.59;;;15.17;54.58
47430;BME280;33181;49.246;7.372;2023-05-25T07:16:58;99455.78;;;14.99;54.63
47430;BME280;33181;49.246;7.372;2023-05-25T07:19:25;99453.13;;;14.99;55.92
47430;BME280;33181;49.246;7.372;2023-05-25T07:21:52;99441.66;;;15.29;54.86
47430;BME280;33181;49.246;7.372;2023-05-25T07:24:17;99444.84;;;15.13;54.74
47430;BME280;33181;49.246;7.372;2023-05-25T07:26:43;99446.81;;;15.40;54.38
47430;BME280;33181;49.246;7.372;2023-05-25T07:29:10;99449.22;;;15.53;52.89
47430;BME280;33181;49.246;7.372;2023-05-25T07:31:37;99444.50;;;15.76;53.02
47430;BME280;33181;49.246;7.372;2023-05-25T07:34:02;99444.78;;;16.02;51.46
47430;BME280;33181;49.246;7.372;2023-05-25T07:36:28;99434.22;;;15.83;52.54
47430;BME280;33181;49.246;7.372;2023-05-25T07:38:54;99446.47;;;15.84;51.71
47430;BME280;33181;49.246;7.372;2023-05-25T07:41:20;99436.97;;;15.81;52.58
47430;BME280;33181;49.246;7.372;2023-05-25T07:43:46;99443.78;;;16.03;52.03
47430;BME280;33181;49.246;7.372;2023-05-25T07:46:12;99435.47;;;16.45;51.08
47430;BME280;33181;49.246;7.372;2023-05-25T07:48:38;99432.59;;;16.76;50.18
47430;BME280;33181;49.246;7.372;2023-05-25T07:51:03;99439.38;;;16.88;49.25
47430;BME280;33181;49.246;7.372;2023-05-25T07:53:30;99440.63;;;16.94;48.17
47430;BME280;33181;49.246;7.372;2023-05-25T07:55:56;99439.72;;;16.75;47.28
47430;BME280;33181;49.246;7.372;2023-05-25T07:58:21;99441.03;;;16.61;48.29
47430;BME280;33181;49.246;7.372;2023-05-25T08:00:48;99443.97;;;16.58;48.38
47430;BME280;33181;49.246;7.372;2023-05-25T08:03:14;99440.56;;;16.76;48.90
47430;BME280;33181;49.246;7.372;2023-05-25T08:05:41;99451.22;;;16.56;48.33
47430;BME280;33181;49.246;7.372;2023-05-25T08:08:08;99440.91;;;16.53;47.65
47430;BME280;33181;49.246;7.372;2023-05-25T08:10:35;99447.06;;;16.91;47.72
47430;BME280;33181;49.246;7.372;2023-05-25T08:13:01;99456.03;;;17.35;46.44
47430;BME280;33181;49.246;7.372;2023-05-25T08:15:27;99455.97;;;17.00;46.13
47430;BME280;33181;49.246;7.372;2023-05-25T08:17:54;99460.38;;;17.09;45.25
47430;BME280;33181;49.246;7.372;2023-05-25T08:20:21;99461.56;;;16.97;45.90
47430;BME280;33181;49.246;7.372;2023-05-25T08:22:48;99451.00;;;17.32;46.47
47430;BME280;33181;49.246;7.372;2023-05-25T08:25:14;99454.22;;;17.54;44.87
47430;BME280;33181;49.246;7.372;2023-05-25T08:27:40;99456.50;;;17.31;46.85
47430;BME280;33181;49.246;7.372;2023-05-25T08:30:07;99456.50;;;17.03;46.02
47430;BME280;33181;49.246;7.372;2023-05-25T08:32:32;99460.56;;;17.25;47.62
47430;BME280;33181;49.246;7.372;2023-05-25T08:34:59;99452.88;;;17.50;46.69
47430;BME280;33181;49.246;7.372;2023-05-25T08:37:26;99461.63;;;17.78;46.56
47430;BME280;33181;49.246;7.372;2023-05-25T08:39:51;99462.00;;;17.83;46.23
47430;BME280;33181;49.246;7.372;2023-05-25T08:42:18;99465.31;;;18.03;46.15
47430;BME280;33181;49.246;7.372;2023-05-25T08:44:44;99464.22;;;18.32;46.14
47430;BME280;33181;49.246;7.372;2023-05-25T08:47:11;99460.41;;;18.34;45.74
47430;BME280;33181;49.246;7.372;2023-05-25T08:49:38;99456.47;;;18.38;46.32
47430;BME280;33181;49.246;7.372;2023-05-25T08:52:13;99458.06;;;18.83;45.97
47430;BME280;33181;49.246;7.372;2023-05-25T08:54:51;99465.31;;;19.07;44.81
47430;BME280;33181;49.246;7.372;2023-05-25T09:00:33;99469.38;;;17.89;47.54
47430;BME280;33181;49.246;7.372;2023-05-25T09:03:14;99461.72;;;18.30;47.45
47430;BME280;33181;49.246;7.372;2023-05-25T09:05:42;99460.03;;;18.55;48.15
47430;BME280;33181;49.246;7.372;2023-05-25T09:08:09;99446.28;;;18.86;46.87
47430;BME280;33181;49.246;7.372;2023-05-25T09:10:38;99448.00;;;19.03;45.53
47430;BME280;33181;49.246;7.372;2023-05-25T09:13:04;99463.19;;;19.11;45.51
47430;BME280;33181;49.246;7.372;2023-05-25T09:15:32;99470.06;;;18.61;46.42
47430;BME280;33181;49.246;7.372;2023-05-25T09:17:58;99457.56;;;18.80;46.47
47430;BME280;33181;49.246;7.372;2023-05-25T09:20:25;99468.09;;;18.63;47.03
47430;BME280;33181;49.246;7.372;2023-05-25T09:22:59;99458.09;;;18.91;47.55
47430;BME280;33181;49.246;7.372;2023-05-25T09:25:27;99466.63;;;18.95;47.08
47430;BME280;33181;49.246;7.372;2023-05-25T09:27:55;99461.81;;;18.46;47.48
47430;BME280;33181;49.246;7.372;2023-05-25T09:30:23;99458.78;;;18.67;47.93
47430;BME280;33181;49.246;7.372;2023-05-25T09:32:50;99456.72;;;18.79;48.05
47430;BME280;33181;49.246;7.372;2023-05-25T09:35:16;99453.53;;;19.18;46.31
47430;BME280;33181;49.246;7.372;2023-05-25T09:37:43;99474.06;;;19.34;45.30
47430;BME280;33181;49.246;7.372;2023-05-25T09:40:14;99476.13;;;19.06;45.11
47430;BME280;33181;49.246;7.372;2023-05-25T09:42:40;99476.19;;;19.14;45.98
47430;BME280;33181;49.246;7.372;2023-05-25T09:45:07;99469.66;;;19.08;45.10
47430;BME280;33181;49.246;7.372;2023-05-25T09:47:35;99459.50;;;19.12;43.95
47430;BME280;33181;49.246;7.372;2023-05-25T09:50:02;99458.69;;;19.19;44.25
47430;BME280;33181;49.246;7.372;2023-05-25T09:52:30;99457.63;;;18.96;44.34
47430;BME280;33181;49.246;7.372;2023-05-25T09:54:56;99466.91;;;18.66;44.95
47430;BME280;33181;49.246;7.372;2023-05-25T09:57:22;99467.63;;;19.02;44.39
47430;BME280;33181;49.246;7.372;2023-05-25T09:59:48;99468.34;;;19.12;44.54
47430;BME280;33181;49.246;7.372;2023-05-25T10:02:14;99463.50;;;19.08;43.81
47430;BME280;33181;49.246;7.372;2023-05-25T10:04:40;99463.81;;;19.05;44.58
47430;BME280;33181;49.246;7.372;2023-05-25T10:07:07;99465.47;;;19.06;44.54
47430;BME280;33181;49.246;7.372;2023-05-25T10:09:40;99458.84;;;19.10;44.33
47430;BME280;33181;49.246;7.372;2023-05-25T10:12:09;99458.50;;;19.13;43.80
47430;BME280;33181;49.246;7.372;2023-05-25T10:14:37;99461.41;;;19.28;44.04
47430;BME280;33181;49.246;7.372;2023-05-25T10:17:05;99457.69;;;19.71;42.70
47430;BME280;33181;49.246;7.372;2023-05-25T10:19:59;99452.34;;;19.71;42.20
47430;BME280;33181;49.246;7.372;2023-05-25T10:22:31;99454.69;;;19.66;42.30
47430;BME280;33181;49.246;7.372;2023-05-25T10:28:02;99451.63;;;20.43;42.13
47430;BME280;33181;49.246;7.372;2023-05-25T10:30:33;99464.84;;;20.20;41.29
47430;BME280;33181;49.246;7.372;2023-05-25T10:33:02;99456.28;;;20.73;41.47
47430;BME280;33181;49.246;7.372;2023-05-25T10:35:29;99454.97;;;20.69;40.97
47430;BME280;33181;49.246;7.372;2023-05-25T10:37:56;99457.63;;;20.61;40.50
47430;BME280;33181;49.246;7.372;2023-05-25T10:40:23;99469.34;;;20.52;40.91
47430;BME280;33181;49.246;7.372;2023-05-25T10:42:59;99462.16;;;20.44;40.25
47430;BME280;33181;49.246;7.372;2023-05-25T10:45:26;99459.19;;;20.31;39.87
47430;BME280;33181;49.246;7.372;2023-05-25T10:47:52;99468.34;;;20.20;40.79
47430;BME280;33181;49.246;7.372;2023-05-25T10:50:24;99456.03;;;20.27;39.75
47430;BME280;33181;49.246;7.372;2023-05-25T10:53:05;99462.00;;;20.29;39.99
47430;BME280;33181;49.246;7.372;2023-05-25T10:58:18;99482.03;;;20.33;39.22
47430;BME280;33181;49.246;7.372;2023-05-25T11:03:56;99473.69;;;20.04;38.61
47430;BME280;33181;49.246;7.372;2023-05-25T11:09:05;99457.53;;;20.13;38.45
47430;BME280;33181;49.246;7.372;2023-05-25T11:14:22;99469.50;;;20.50;38.41
47430;BME280;33181;49.246;7.372;2023-05-25T11:17:11;99458.13;;;20.48;38.46
47430;BME280;33181;49.246;7.372;2023-05-25T11:19:48;99469.34;;;20.60;37.85
47430;BME280;33181;49.246;7.372;2023-05-25T11:22:35;99453.88;;;20.87;37.44
47430;BME280;33181;49.246;7.372;2023-05-25T11:25:35;99447.22;;;20.82;37.38
47430;BME280;33181;49.246;7.372;2023-05-25T11:28:08;99450.03;;;20.89;36.46
47430;BME280;33181;49.246;7.372;2023-05-25T11:30:39;99451.09;;;21.19;35.90
47430;BME280;33181;49.246;7.372;2023-05-25T11:33:06;99447.97;;;20.60;36.59
47430;BME280;33181;49.246;7.372;2023-05-25T11:35:34;99444.44;;;20.68;37.67
47430;BME280;33181;49.246;7.372;2023-05-25T11:38:07;99442.63;;;20.68;36.48
47430;BME280;33181;49.246;7.372;2023-05-25T11:40:34;99449.22;;;20.89;36.31
47430;BME280;33181;49.246;7.372;2023-05-25T11:43:03;99436.66;;;20.97;35.52
47430;BME280;33181;49.246;7.372;2023-05-25T11:45:31;99432.75;;;21.08;35.44
47430;BME280;33181;49.246;7.372;2023-05-25T11:48:03;99432.91;;;21.46;35.73
47430;BME280;33181;49.246;7.372;2023-05-25T11:50:30;99431.25;;;21.45;34.49
47430;BME280;33181;49.246;7.372;2023-05-25T11:52:56;99426.59;;;21.47;35.53
47430;BME280;33181;49.246;7.372;2023-05-25T11:55:23;99436.13;;;21.64;35.57
47430;BME280;33181;49.246;7.372;2023-05-25T11:57:56;99427.56;;;21.46;37.26
47430;BME280;33181;49.246;7.372;2023-05-25T12:00:26;99430.91;;;21.71;35.30
47430;BME280;33181;49.246;7.372;2023-05-25T12:02:53;99433.47;;;21.41;35.42
47430;BME280;33181;49.246;7.372;2023-05-25T12:05:20;99434.50;;;21.32;34.82
47430;BME280;33181;49.246;7.372;2023-05-25T12:07:48;99437.72;;;21.19;35.16
47430;BME280;33181;49.246;7.372;2023-05-25T12:10:15;99438.56;;;21.20;35.22
47430;BME280;33181;49.246;7.372;2023-05-25T12:12:51;99423.59;;;21.42;35.55
47430;BME280;33181;49.246;7.372;2023-05-25T12:15:23;99423.59;;;21.34;36.00
47430;BME280;33181;49.246;7.372;2023-05-25T12:17:52;99431.34;;;21.28;35.50
47430;BME280;33181;49.246;7.372;2023-05-25T12:20:19;99426.50;;;21.24;35.70
47430;BME280;33181;49.246;7.372;2023-05-25T12:22:46;99413.63;;;21.27;35.26
47430;BME280;33181;49.246;7.372;2023-05-25T12:25:17;99413.91;;;21.64;34.90
47430;BME280;33181;49.246;7.372;2023-05-25T12:27:43;99416.03;;;21.68;34.87
47430;BME280;33181;49.246;7.372;2023-05-25T12:30:10;99420.09;;;21.64;34.91
47430;BME280;33181;49.246;7.372;2023-05-25T12:33:00;99414.38;;;21.67;34.32
47430;BME280;33181;49.246;7.372;2023-05-25T12:35:28;99419.13;;;21.80;34.85
47430;BME280;33181;49.246;7.372;2023-05-25T12:38:16;99415.78;;;21.63;34.63
47430;BME280;33181;49.246;7.372;2023-05-25T12:40:48;99430.31;;;21.38;34.42
47430;BME280;33181;49.246;7.372;2023-05-25T12:43:39;99418.13;;;21.35;35.01
47430;BME280;33181;49.246;7.372;2023-05-25T12:46:07;99409.94;;;21.83;33.70
47430;BME280;33181;49.246;7.372;2023-05-25T12:48:34;99415.78;;;21.63;34.30
47430;BME280;33181;49.246;7.372;2023-05-25T12:51:00;99420.84;;;21.50;34.65
47430;BME280;33181;49.246;7.372;2023-05-25T12:53:26;99431.38;;;21.20;35.03
47430;BME280;33181;49.246;7.372;2023-05-25T12:56:03;99415.78;;;21.32;35.24
47430;BME280;33181;49.246;7.372;2023-05-25T12:58:29;99408.72;;;21.62;35.31
47430;BME280;33181;49.246;7.372;2023-05-25T13:00:55;99410.34;;;21.71;34.36
47430;BME280;33181;49.246;7.372;2023-05-25T13:03:22;99408.06;;;21.83;35.17
47430;BME280;33181;49.246;7.372;2023-05-25T13:05:48;99416.31;;;21.96;33.67
47430;BME280;33181;49.246;7.372;2023-05-25T13:08:16;99414.97;;;21.78;34.34
47430;BME280;33181;49.246;7.372;2023-05-25T13:10:42;99405.47;;;21.75;34.41
47430;BME280;33181;49.246;7.372;2023-05-25T13:13:09;99410.88;;;21.90;35.43
47430;BME280;33181;49.246;7.372;2023-05-25T13:15:35;99406.38;;;22.05;34.42
47430;BME280;33181;49.246;7.372;2023-05-25T13:18:01;99413.31;;;21.77;34.31
47430;BME280;33181;49.246;7.372;2023-05-25T13:20:28;99399.63;;;21.71;34.89
47430;BME280;33181;49.246;7.372;2023-05-25T13:22:55;99396.19;;;21.40;34.77
47430;BME280;33181;49.246;7.372;2023-05-25T13:25:21;99402.56;;;21.62;35.64